Time;durP1;ratioP1;P1;durP2;ratioP2;P2;SDS_P1;SDS_P2;PMS_P1;PMS_P2;Temp;Humidity;BMP_temperature;BMP_pressure;BME280_temperature;BME280_humidity;BME280_pressure;Samples;Min_cycle;Max_cycle;Signal;HPM_P1;HPM_P2
2022/06/11 00:00:56;;;;;;;4.80;4.40;;;15.10;99.90;;;;;;5011148;28;20448;-84
2022/06/11 00:03:23;;;;;;;4.80;4.43;;;15.10;99.90;;;;;;5015731;28;20453;-83
2022/06/11 00:05:50;;;;;;;4.20;3.90;;;15.10;99.90;;;;;;5024958;28;20956;-85
2022/06/11 00:08:18;;;;;;;7.13;4.27;;;15.00;99.90;;;;;;5015020;28;20892;-84
2022/06/11 00:10:46;;;;;;;5.60;4.90;;;15.00;99.90;;;;;;5005101;28;20466;-85
2022/06/11 00:13:14;;;;;;;4.73;4.33;;;15.00;99.90;;;;;;5023108;28;20452;-84
2022/06/11 00:15:41;;;;;;;4.63;4.27;;;14.90;99.90;;;;;;5024067;28;20451;-82
2022/06/11 00:18:08;;;;;;;4.57;4.27;;;14.90;99.90;;;;;;5003558;28;20469;-82
2022/06/11 00:20:35;;;;;;;4.50;4.10;;;14.90;99.90;;;;;;5010439;28;20448;-85
2022/06/11 00:23:02;;;;;;;5.70;4.37;;;14.80;99.90;;;;;;5021298;28;20975;-84
2022/06/11 00:25:31;;;;;;;5.40;4.90;;;14.80;99.90;;;;;;5004786;28;20452;-85
2022/06/11 00:27:59;;;;;;;5.73;4.87;;;14.80;99.90;;;;;;5022264;28;20501;-84
2022/06/11 00:30:26;;;;;;;6.53;6.00;;;14.80;99.90;;;;;;5024299;28;20502;-84
2022/06/11 00:32:55;;;;;;;6.73;4.97;;;14.80;99.90;;;;;;5023532;28;20456;-85
2022/06/11 00:35:22;;;;;;;4.60;4.30;;;14.70;99.90;;;;;;5024384;28;20937;-85
2022/06/11 00:37:50;;;;;;;5.40;4.53;;;14.70;99.90;;;;;;5004937;28;20476;-85
2022/06/11 00:40:20;;;;;;;6.20;5.60;;;14.70;99.90;;;;;;5004682;28;20452;-84
2022/06/11 00:42:47;;;;;;;5.47;5.07;;;14.70;99.90;;;;;;5022205;28;20555;-85
2022/06/11 00:45:25;;;;;;;5.20;4.70;;;14.70;99.90;;;;;;5024933;28;20867;-84
2022/06/11 00:47:56;;;;;;;5.47;5.07;;;14.70;99.90;;;;;;5005901;28;20486;-83
2022/06/11 00:50:25;;;;;;;6.17;4.53;;;14.60;99.90;;;;;;5004443;28;20487;-85
2022/06/11 00:52:55;;;;;;;5.20;4.47;;;14.60;99.90;;;;;;5021833;28;20965;-82
2022/06/11 00:55:27;;;;;;;6.20;5.50;;;14.50;99.90;;;;;;5007250;28;20452;-82
2022/06/11 00:57:57;;;;;;;4.80;4.40;;;14.50;99.90;;;;;;5001655;28;20482;-82
2022/06/11 01:00:29;;;;;;;5.53;5.13;;;14.50;99.90;;;;;;5013878;28;20456;-82
2022/06/11 01:02:57;;;;;;;8.87;4.80;;;14.50;99.90;;;;;;5019884;28;20455;-82
2022/06/11 01:05:26;;;;;;;4.93;4.53;;;14.50;99.90;;;;;;5001649;28;20460;-82
2022/06/11 01:08:26;;;;;;;5.10;4.70;;;14.50;99.90;;;;;;5000777;28;21001;-82
2022/06/11 01:11:10;;;;;;;4.97;4.47;;;14.40;99.90;;;;;;5001237;28;20488;-82
2022/06/11 01:13:42;;;;;;;5.63;5.23;;;14.40;99.90;;;;;;5005804;28;20470;-82
2022/06/11 01:16:17;;;;;;;5.07;4.67;;;14.40;99.90;;;;;;5016103;28;20957;-84
2022/06/11 01:18:52;;;;;;;5.03;4.60;;;14.30;99.90;;;;;;4999080;28;20528;-83
2022/06/11 01:21:30;;;;;;;5.33;4.80;;;14.30;99.90;;;;;;4998830;28;20455;-83
2022/06/11 01:24:33;;;;;;;5.17;4.70;;;14.30;99.90;;;;;;4999340;28;20453;-83
2022/06/11 01:27:29;;;;;;;5.63;5.13;;;14.30;99.90;;;;;;4998332;28;20470;-83
2022/06/11 01:30:00;;;;;;;4.93;4.37;;;14.30;99.90;;;;;;5010650;28;20481;-82
2022/06/11 01:32:40;;;;;;;4.87;4.57;;;14.20;99.90;;;;;;5019791;28;20537;-81
2022/06/11 01:35:24;;;;;;;4.60;4.30;;;14.20;99.90;;;;;;5007451;28;20468;-82
2022/06/11 01:37:55;;;;;;;5.90;5.30;;;14.20;99.90;;;;;;5000813;28;20502;-81
2022/06/11 01:40:32;;;;;;;4.93;4.53;;;14.20;99.90;;;;;;5013608;28;20522;-82
2022/06/11 01:43:02;;;;;;;5.40;4.70;;;14.20;99.90;;;;;;5020393;28;20961;-81
2022/06/11 01:45:34;;;;;;;5.40;4.90;;;14.20;99.90;;;;;;5005760;28;20463;-82
2022/06/11 01:48:03;;;;;;;4.97;4.57;;;14.10;99.90;;;;;;5019511;28;20876;-82
2022/06/11 01:50:35;;;;;;;5.27;4.87;;;14.10;99.90;;;;;;5005702;28;20824;-82
2022/06/11 01:53:20;;;;;;;4.97;4.47;;;14.10;99.90;;;;;;5006231;28;20464;-83
2022/06/11 01:56:11;;;;;;;5.07;4.70;;;14.10;99.90;;;;;;5022027;28;20457;-83
2022/06/11 01:59:01;;;;;;;5.07;4.30;;;14.10;99.90;;;;;;5010423;28;20498;-83
2022/06/11 02:01:46;;;;;;;5.03;4.63;;;14.10;99.90;;;;;;5005997;28;20458;-84
2022/06/11 02:04:22;;;;;;;5.90;5.30;;;14.10;99.90;;;;;;5024458;28;20462;-83
2022/06/11 02:06:55;;;;;;;5.13;4.73;;;14.10;99.90;;;;;;5025559;28;20497;-83
2022/06/11 02:09:28;;;;;;;5.90;4.27;;;14.10;99.90;;;;;;5005389;28;20492;-83
2022/06/11 02:12:04;;;;;;;5.23;4.80;;;14.10;99.90;;;;;;5005941;28;20464;-83
2022/06/11 02:14:39;;;;;;;5.27;4.70;;;14.10;99.90;;;;;;5009908;28;20450;-83
2022/06/11 02:17:12;;;;;;;4.97;4.60;;;14.10;99.90;;;;;;5024067;28;20469;-83
2022/06/11 02:19:44;;;;;;;5.93;4.30;;;14.10;99.90;;;;;;5025241;28;20453;-83
2022/06/11 02:22:16;;;;;;;4.50;4.20;;;14.10;99.90;;;;;;5023422;28;20452;-83
2022/06/11 02:24:49;;;;;;;4.13;3.83;;;14.10;99.90;;;;;;5005657;28;20432;-82
2022/06/11 02:27:19;;;;;;;4.53;4.10;;;14.10;99.90;;;;;;5006503;28;20510;-82
2022/06/11 02:29:47;;;;;;;4.70;4.40;;;14.10;99.90;;;;;;5019449;28;20562;-82
2022/06/11 02:32:18;;;;;;;4.80;4.40;;;14.10;99.90;;;;;;5005180;28;20447;-82
2022/06/11 02:34:48;;;;;;;4.63;4.23;;;14.10;99.90;;;;;;5017516;28;20463;-80
2022/06/11 02:37:20;;;;;;;5.70;4.20;;;14.10;99.90;;;;;;4998051;28;20479;-80
2022/06/11 02:39:47;;;;;;;6.37;4.93;;;14.10;99.90;;;;;;5018110;28;20453;-80
2022/06/11 02:42:17;;;;;;;4.60;4.30;;;14.00;99.90;;;;;;5000759;28;20469;-80
2022/06/11 02:44:45;;;;;;;5.93;5.00;;;14.00;99.90;;;;;;4997727;28;20461;-80
2022/06/11 02:47:12;;;;;;;4.53;4.17;;;14.00;99.90;;;;;;5012889;28;20477;-81
2022/06/11 02:49:41;;;;;;;5.40;4.90;;;13.90;99.90;;;;;;5017078;28;20848;-79
2022/06/11 02:52:10;;;;;;;4.43;4.13;;;13.90;99.90;;;;;;5005430;28;20807;-80
2022/06/11 02:54:38;;;;;;;4.37;4.10;;;13.90;99.90;;;;;;5001055;28;20454;-80
2022/06/11 02:57:07;;;;;;;5.30;4.80;;;13.90;99.90;;;;;;5011869;28;20496;-81
2022/06/11 02:59:34;;;;;;;6.03;4.20;;;13.90;99.90;;;;;;5001628;28;20446;-81
2022/06/11 03:02:01;;;;;;;4.67;4.23;;;13.90;99.90;;;;;;4999574;28;20450;-82
2022/06/11 03:04:29;;;;;;;4.57;4.23;;;13.90;99.90;;;;;;5000071;28;20813;-80
2022/06/11 03:06:57;;;;;;;4.30;3.90;;;13.90;99.90;;;;;;5010465;28;20471;-81
2022/06/11 03:09:26;;;;;;;3.93;3.67;;;13.90;99.90;;;;;;5019477;28;20971;-81
2022/06/11 03:11:54;;;;;;;4.70;4.30;;;13.90;99.90;;;;;;5014088;28;20453;-83
2022/06/11 03:14:20;;;;;;;4.60;4.10;;;13.80;99.90;;;;;;5013501;28;20455;-81
2022/06/11 03:16:48;;;;;;;5.70;5.20;;;13.90;99.90;;;;;;4999651;28;20554;-81
2022/06/11 03:19:15;;;;;;;4.63;4.30;;;13.80;99.90;;;;;;5002825;28;20456;-82
2022/06/11 03:21:43;;;;;;;4.80;4.40;;;13.90;99.90;;;;;;5019176;28;20963;-81
2022/06/11 03:24:11;;;;;;;5.80;5.40;;;13.90;99.90;;;;;;5018687;28;20450;-82
2022/06/11 03:26:37;;;;;;;5.53;5.03;;;13.90;99.90;;;;;;5019399;28;20474;-83
2022/06/11 03:29:05;;;;;;;5.70;5.20;;;13.90;99.90;;;;;;5016639;28;20494;-81
2022/06/11 03:31:32;;;;;;;6.90;6.17;;;13.90;99.90;;;;;;5004676;28;20897;-80
2022/06/11 03:33:59;;;;;;;5.80;5.30;;;13.90;99.90;;;;;;5007749;28;20458;-83
2022/06/11 03:36:26;;;;;;;6.97;5.80;;;13.80;99.90;;;;;;5018290;28;20450;-81
2022/06/11 03:38:53;;;;;;;9.47;6.40;;;13.90;99.90;;;;;;5023738;28;20460;-82
2022/06/11 03:41:22;;;;;;;6.70;6.20;;;13.80;99.90;;;;;;5017261;28;20459;-81
2022/06/11 03:43:49;;;;;;;5.97;5.37;;;13.80;99.90;;;;;;5006595;28;20456;-83
2022/06/11 03:46:17;;;;;;;6.43;5.97;;;13.80;99.90;;;;;;5014614;28;20477;-81
2022/06/11 03:48:45;;;;;;;6.70;6.17;;;13.80;99.90;;;;;;5011598;28;20483;-83
2022/06/11 03:51:12;;;;;;;7.23;6.53;;;13.80;99.90;;;;;;5011559;28;20478;-83
2022/06/11 03:53:39;;;;;;;6.73;6.23;;;13.90;99.90;;;;;;5023914;28;20970;-83
2022/06/11 03:56:09;;;;;;;6.67;6.17;;;13.80;99.90;;;;;;5018092;28;20509;-83
2022/06/11 03:58:38;;;;;;;8.63;7.83;;;13.90;99.90;;;;;;5013699;28;20533;-83
2022/06/11 04:01:16;;;;;;;7.10;6.50;;;13.90;99.90;;;;;;5006557;28;20443;-83
2022/06/11 04:03:43;;;;;;;6.30;5.50;;;13.80;99.90;;;;;;5003255;28;20454;-81
2022/06/11 04:06:11;;;;;;;5.87;5.30;;;13.90;99.90;;;;;;5020928;28;20472;-83
2022/06/11 04:08:38;;;;;;;7.47;6.23;;;13.90;99.90;;;;;;5024582;28;20477;-83
2022/06/11 04:11:06;;;;;;;6.63;6.00;;;13.90;99.90;;;;;;5008230;28;20493;-82
2022/06/11 04:13:36;;;;;;;6.97;5.37;;;13.90;99.90;;;;;;5024864;28;20468;-82
2022/06/11 04:16:05;;;;;;;6.13;5.60;;;13.90;99.90;;;;;;5009316;28;20458;-83
2022/06/11 04:18:35;;;;;;;5.93;5.43;;;13.90;99.90;;;;;;5023051;28;20983;-83
2022/06/11 04:21:05;;;;;;;7.30;6.60;;;14.00;99.90;;;;;;5009058;28;20456;-83
2022/06/11 04:23:32;;;;;;;5.73;5.33;;;14.00;99.90;;;;;;5004937;28;20455;-83
2022/06/11 04:26:01;;;;;;;5.40;4.90;;;13.90;99.90;;;;;;5004483;28;20976;-81
2022/06/11 04:28:31;;;;;;;5.60;5.13;;;14.00;99.90;;;;;;5013197;28;20474;-83
2022/06/11 04:30:59;;;;;;;5.73;5.30;;;14.00;99.90;;;;;;5016126;28;20513;-83
2022/06/11 04:33:27;;;;;;;6.43;6.00;;;14.10;99.90;;;;;;5010536;28;20544;-82
2022/06/11 04:35:55;;;;;;;7.33;5.57;;;14.10;99.90;;;;;;5017592;28;20451;-82
2022/06/11 04:38:22;;;;;;;5.93;5.20;;;14.10;99.90;;;;;;5010758;28;20472;-81
2022/06/11 04:40:48;;;;;;;6.10;4.60;;;14.20;99.90;;;;;;5019161;28;20452;-83
2022/06/11 04:43:15;;;;;;;6.47;5.87;;;14.20;99.90;;;;;;5004886;28;20471;-83
2022/06/11 04:45:42;;;;;;;5.00;4.60;;;14.20;99.90;;;;;;5016181;28;20451;-83
2022/06/11 04:48:10;;;;;;;4.43;4.07;;;14.20;99.90;;;;;;5019382;28;20481;-83
2022/06/11 04:50:39;;;;;;;5.20;4.70;;;14.30;99.90;;;;;;5008401;28;20492;-83
2022/06/11 04:53:06;;;;;;;5.83;5.20;;;14.30;99.90;;;;;;5006566;28;20459;-82
2022/06/11 04:55:33;;;;;;;4.97;4.57;;;14.40;99.90;;;;;;5020156;28;20451;-82
2022/06/11 04:58:01;;;;;;;5.67;4.97;;;14.50;99.90;;;;;;5018463;28;20478;-82
2022/06/11 05:00:31;;;;;;;4.77;4.30;;;14.50;99.90;;;;;;5006387;28;20456;-82
2022/06/11 05:02:58;;;;;;;4.70;4.40;;;14.60;99.90;;;;;;5012991;28;20458;-82
2022/06/11 05:05:25;;;;;;;6.67;4.80;;;14.70;99.90;;;;;;5025761;28;20452;-82
2022/06/11 05:07:53;;;;;;;4.13;3.83;;;14.70;99.90;;;;;;5020157;28;20495;-82
2022/06/11 05:10:22;;;;;;;4.20;3.90;;;14.80;99.90;;;;;;5016239;28;20492;-82
2022/06/11 05:12:49;;;;;;;4.73;4.20;;;14.80;99.90;;;;;;5020858;28;20818;-82
2022/06/11 05:15:16;;;;;;;4.90;4.30;;;14.90;99.90;;;;;;5005272;28;20451;-82
2022/06/11 05:17:43;;;;;;;4.53;4.23;;;15.00;99.90;;;;;;5025959;28;20480;-82
2022/06/11 05:20:12;;;;;;;5.27;4.27;;;15.10;99.90;;;;;;5015819;28;20451;-82
2022/06/11 05:22:40;;;;;;;4.87;4.17;;;15.20;99.90;;;;;;5005463;28;20465;-82
2022/06/11 05:25:09;;;;;;;3.70;3.40;;;15.20;99.90;;;;;;5014007;28;20447;-82
2022/06/11 05:27:38;;;;;;;4.07;3.77;;;15.40;99.90;;;;;;5025890;28;20479;-82
2022/06/11 05:30:08;;;;;;;3.80;3.40;;;15.40;99.90;;;;;;5017749;28;20467;-82
2022/06/11 05:32:40;;;;;;;4.80;3.33;;;15.60;99.90;;;;;;5009304;28;20460;-82
2022/06/11 05:35:12;;;;;;;3.87;3.57;;;15.70;99.90;;;;;;5005343;28;20455;-82
2022/06/11 05:37:38;;;;;;;4.23;3.83;;;15.70;99.90;;;;;;5010465;28;20472;-82
2022/06/11 05:40:09;;;;;;;3.67;3.40;;;15.90;99.90;;;;;;5024101;28;20454;-82
2022/06/11 05:42:36;;;;;;;4.23;3.87;;;15.90;99.90;;;;;;5005633;28;20468;-82
2022/06/11 05:45:03;;;;;;;3.87;3.60;;;16.10;99.90;;;;;;5021060;28;20456;-82
2022/06/11 05:47:30;;;;;;;4.40;3.33;;;16.10;99.90;;;;;;5024697;28;20479;-82
2022/06/11 05:50:00;;;;;;;3.80;3.50;;;16.20;99.90;;;;;;5010796;28;20457;-83
2022/06/11 05:52:31;;;;;;;4.20;3.90;;;16.30;99.90;;;;;;5005741;28;20467;-83
2022/06/11 05:54:59;;;;;;;4.10;3.80;;;16.40;99.90;;;;;;5017960;28;20459;-82
2022/06/11 05:57:28;;;;;;;3.83;3.53;;;16.40;99.90;;;;;;5024880;28;20862;-82
2022/06/11 05:59:59;;;;;;;3.53;3.23;;;16.50;99.90;;;;;;5023375;28;20456;-82
2022/06/11 06:02:27;;;;;;;4.37;3.80;;;16.60;99.90;;;;;;5005133;28;20452;-82
2022/06/11 06:04:57;;;;;;;4.67;4.37;;;16.70;99.90;;;;;;5017597;28;20452;-85
2022/06/11 06:07:23;;;;;;;3.70;3.40;;;16.80;99.90;;;;;;5023767;28;20479;-82
2022/06/11 06:09:50;;;;;;;3.77;3.43;;;16.90;99.90;;;;;;5012117;28;20569;-82
2022/06/11 06:12:18;;;;;;;3.87;3.53;;;17.00;99.90;;;;;;5023181;28;20492;-82
2022/06/11 06:14:46;;;;;;;3.67;3.47;;;17.10;99.90;;;;;;5023944;28;20464;-83
2022/06/11 06:17:13;;;;;;;4.30;4.00;;;17.20;99.90;;;;;;5023315;28;20468;-83
2022/06/11 06:19:40;;;;;;;3.00;2.80;;;17.20;99.90;;;;;;5010998;28;20523;-82
2022/06/11 06:22:07;;;;;;;3.93;3.33;;;17.30;99.90;;;;;;5000255;28;20932;-81
2022/06/11 06:24:34;;;;;;;4.00;3.00;;;17.30;99.90;;;;;;5019664;28;20467;-81
2022/06/11 06:27:01;;;;;;;2.87;2.63;;;17.50;99.90;;;;;;5022872;28;20820;-81
2022/06/11 06:29:28;;;;;;;2.93;2.67;;;17.60;99.90;;;;;;5022797;28;20468;-81
2022/06/11 06:31:58;;;;;;;2.80;2.60;;;17.70;99.90;;;;;;5007741;28;20639;-81
2022/06/11 06:34:25;;;;;;;3.60;3.40;;;17.70;99.90;;;;;;5004828;28;20481;-81
2022/06/11 06:36:51;;;;;;;5.67;3.77;;;17.80;99.90;;;;;;5003622;28;20850;-82
2022/06/11 06:39:18;;;;;;;3.30;2.90;;;17.90;99.90;;;;;;5003940;28;20458;-82
2022/06/11 06:41:45;;;;;;;4.30;2.90;;;18.00;99.90;;;;;;5011466;28;20461;-81
2022/06/11 06:44:11;;;;;;;3.50;3.20;;;18.00;99.90;;;;;;5006959;28;20462;-82
2022/06/11 06:46:38;;;;;;;3.50;3.30;;;18.10;99.90;;;;;;5010801;28;20553;-81
2022/06/11 06:49:06;;;;;;;2.77;2.57;;;18.30;99.90;;;;;;5025588;28;20461;-83
2022/06/11 06:51:34;;;;;;;3.33;3.03;;;18.40;99.90;;;;;;5021308;28;20485;-83
2022/06/11 06:54:02;;;;;;;2.90;2.70;;;18.60;99.90;;;;;;5007363;28;20454;-83
2022/06/11 06:56:33;;;;;;;6.60;2.47;;;18.70;99.90;;;;;;5023215;28;20809;-83
2022/06/11 06:59:00;;;;;;;4.30;2.67;;;18.80;99.90;;;;;;5015328;28;20473;-83
2022/06/11 07:01:27;;;;;;;3.33;3.10;;;18.80;99.90;;;;;;5007228;28;20481;-83
2022/06/11 07:03:54;;;;;;;2.43;2.23;;;18.80;99.90;;;;;;5018805;28;20460;-83
2022/06/11 07:06:22;;;;;;;3.10;2.70;;;18.90;99.90;;;;;;5027279;28;20453;-83
2022/06/11 07:08:49;;;;;;;3.00;2.80;;;19.00;99.90;;;;;;5008658;28;20550;-83
2022/06/11 07:11:16;;;;;;;2.83;2.63;;;19.10;99.90;;;;;;5006265;28;20481;-83
2022/06/11 07:13:43;;;;;;;2.73;2.50;;;19.20;99.90;;;;;;5022974;28;20460;-83
2022/06/11 07:16:10;;;;;;;3.00;2.80;;;19.20;99.90;;;;;;5027588;28;20455;-83
2022/06/11 07:18:41;;;;;;;3.00;2.80;;;19.30;99.90;;;;;;5012250;28;20486;-83
2022/06/11 07:21:12;;;;;;;3.10;2.37;;;19.20;99.90;;;;;;5024342;28;20453;-83
2022/06/11 07:23:45;;;;;;;4.30;2.70;;;19.40;99.10;;;;;;5011991;28;20454;-83
2022/06/11 07:26:17;;;;;;;3.30;2.50;;;19.40;99.40;;;;;;5005223;28;20520;-82
2022/06/11 07:28:49;;;;;;;6.00;2.93;;;19.60;99.10;;;;;;5018128;28;20468;-82
2022/06/11 07:31:16;;;;;;;2.90;2.70;;;19.70;99.30;;;;;;5017214;28;20481;-82
2022/06/11 07:33:43;;;;;;;3.10;2.80;;;19.90;99.40;;;;;;5003637;28;20465;-82
2022/06/11 07:36:10;;;;;;;2.60;2.43;;;19.90;98.20;;;;;;5005118;28;20527;-83
2022/06/11 07:38:37;;;;;;;5.90;3.50;;;20.00;98.40;;;;;;5009329;28;20474;-83
2022/06/11 07:41:05;;;;;;;3.00;2.80;;;20.10;98.50;;;;;;5022798;28;20981;-83
2022/06/11 07:43:32;;;;;;;6.00;3.40;;;20.10;97.00;;;;;;5018672;28;20976;-83
2022/06/11 07:45:59;;;;;;;2.27;2.13;;;20.20;97.30;;;;;;5016724;28;20957;-85
2022/06/11 07:48:26;;;;;;;4.00;3.70;;;20.20;97.60;;;;;;4999356;28;21008;-84
2022/06/11 07:50:53;;;;;;;2.60;2.40;;;20.30;98.30;;;;;;5000093;28;20463;-86
2022/06/11 07:53:22;;;;;;;3.30;2.33;;;20.40;98.20;;;;;;5003341;28;20466;-86
2022/06/11 07:55:51;;;;;;;6.10;2.20;;;20.50;98.30;;;;;;5013987;28;20457;-85
2022/06/11 07:58:22;;;;;;;5.30;4.70;;;20.60;97.80;;;;;;5018664;28;20474;-81
2022/06/11 08:00:52;;;;;;;2.50;2.30;;;20.80;97.70;;;;;;5017331;28;20457;-80
2022/06/11 08:03:20;;;;;;;3.37;3.17;;;20.90;97.10;;;;;;5021276;28;20467;-80
2022/06/11 08:05:47;;;;;;;3.10;2.90;;;21.10;96.70;;;;;;5005343;28;20481;-80
2022/06/11 08:08:15;;;;;;;3.00;2.80;;;21.20;97.10;;;;;;5010901;28;20507;-81
2022/06/11 08:10:44;;;;;;;3.30;3.03;;;21.30;97.50;;;;;;5007621;28;20459;-81
2022/06/11 08:13:12;;;;;;;3.87;3.47;;;21.30;95.60;;;;;;5008972;28;20990;-80
2022/06/11 08:15:43;;;;;;;2.60;2.50;;;21.40;96.30;;;;;;5002199;28;20463;-81
2022/06/11 08:18:10;;;;;;;4.53;2.90;;;21.60;95.30;;;;;;5001608;28;20892;-81
2022/06/11 08:20:37;;;;;;;3.23;3.00;;;21.60;94.20;;;;;;5014236;28;20447;-81
2022/06/11 08:23:05;;;;;;;2.83;2.63;;;21.70;94.80;;;;;;5010267;28;20969;-81
2022/06/11 08:25:32;;;;;;;2.93;2.73;;;21.80;95.30;;;;;;5010280;28;20509;-83
2022/06/11 08:27:59;;;;;;;2.77;2.53;;;21.90;94.30;;;;;;5011506;28;20465;-81
2022/06/11 08:30:28;;;;;;;3.00;2.80;;;21.90;93.60;;;;;;5013428;28;20454;-81
2022/06/11 08:32:57;;;;;;;3.47;2.90;;;21.80;93.40;;;;;;5009813;28;20485;-80
2022/06/11 08:35:26;;;;;;;3.37;3.00;;;21.80;94.20;;;;;;5011171;28;20455;-80
2022/06/11 08:37:53;;;;;;;2.97;2.77;;;21.80;93.90;;;;;;5011624;28;20469;-81
2022/06/11 08:40:24;;;;;;;5.13;3.13;;;21.90;93.20;;;;;;5009585;28;20454;-81
2022/06/11 08:42:58;;;;;;;3.43;3.13;;;22.20;93.90;;;;;;5011499;28;20975;-81
2022/06/11 08:45:29;;;;;;;4.53;3.20;;;22.40;93.80;;;;;;5009847;28;20464;-82
2022/06/11 08:48:02;;;;;;;3.07;2.47;;;22.40;95.10;;;;;;5011608;28;20474;-81
2022/06/11 08:50:34;;;;;;;2.77;2.67;;;22.40;93.10;;;;;;5009044;28;20979;-81
2022/06/11 08:53:02;;;;;;;3.30;2.90;;;22.50;93.90;;;;;;5008519;28;20961;-80
2022/06/11 08:55:35;;;;;;;4.77;3.13;;;22.60;94.50;;;;;;5006451;28;20446;-81
2022/06/11 08:58:09;;;;;;;3.90;3.60;;;22.80;94.40;;;;;;5008445;28;20818;-80
2022/06/11 09:00:44;;;;;;;5.03;2.97;;;23.00;92.90;;;;;;5013991;28;20485;-80
2022/06/11 09:03:29;;;;;;;3.17;2.87;;;23.10;93.70;;;;;;5001415;28;20453;-79
2022/06/11 09:06:19;;;;;;;3.67;3.40;;;23.00;91.20;;;;;;5011183;28;20457;-79
2022/06/11 09:08:58;;;;;;;2.70;2.50;;;23.10;90.90;;;;;;5013403;28;20451;-80
2022/06/11 09:11:37;;;;;;;4.00;2.57;;;23.40;91.60;;;;;;5000898;28;20495;-80
2022/06/11 09:14:26;;;;;;;2.70;2.50;;;23.20;90.10;;;;;;5021113;28;20460;-81
2022/06/11 09:17:10;;;;;;;3.27;2.97;;;23.40;90.40;;;;;;5002397;28;20984;-80
2022/06/11 09:19:52;;;;;;;3.13;2.93;;;23.40;90.00;;;;;;5000673;28;20455;-80
2022/06/11 09:22:35;;;;;;;2.50;2.40;;;23.20;89.10;;;;;;4999095;28;20451;-81
2022/06/11 09:25:14;;;;;;;4.50;2.93;;;23.10;90.20;;;;;;4999616;28;20455;-80
2022/06/11 09:27:49;;;;;;;3.03;2.80;;;23.10;90.00;;;;;;4998520;28;20485;-86
2022/06/11 09:30:19;;;;;;;3.90;2.50;;;22.90;89.70;;;;;;5000964;28;20443;-86
2022/06/11 09:32:52;;;;;;;3.20;2.60;;;22.90;88.20;;;;;;5003345;28;20509;-86
2022/06/11 09:35:22;;;;;;;2.40;2.20;;;23.00;88.00;;;;;;5004605;28;20454;-85
2022/06/11 09:38:03;;;;;;;3.40;2.73;;;23.10;88.20;;;;;;5004009;28;20478;-85
2022/06/11 09:40:38;;;;;;;4.33;3.03;;;23.20;87.20;;;;;;5004206;28;20511;-83
2022/06/11 09:43:19;;;;;;;2.70;2.50;;;23.40;85.80;;;;;;5005693;28;20457;-84
2022/06/11 09:45:52;;;;;;;3.20;3.00;;;23.70;85.90;;;;;;5005502;28;20455;-83
2022/06/11 09:48:29;;;;;;;3.27;3.03;;;23.90;88.30;;;;;;5005572;28;20479;-83
2022/06/11 09:51:07;;;;;;;2.80;2.60;;;24.20;85.60;;;;;;5005427;28;20455;-83
2022/06/11 09:53:48;;;;;;;3.53;3.20;;;24.40;85.60;;;;;;5004638;28;20498;-83
2022/06/11 09:56:21;;;;;;;4.20;2.83;;;24.40;82.50;;;;;;5006160;28;20451;-83
2022/06/11 09:59:04;;;;;;;3.73;2.90;;;24.40;80.90;;;;;;5005649;28;20450;-83
2022/06/11 10:01:38;;;;;;;2.80;2.60;;;24.50;82.00;;;;;;5003709;28;20448;-85
2022/06/11 10:04:08;;;;;;;4.33;2.80;;;24.80;86.80;;;;;;5003650;28;20450;-85
2022/06/11 10:06:41;;;;;;;4.90;2.87;;;25.10;84.80;;;;;;5003976;28;20465;-85
2022/06/11 10:09:14;;;;;;;3.63;2.60;;;25.40;81.30;;;;;;5004304;28;20465;-85
2022/06/11 10:11:46;;;;;;;5.10;3.57;;;25.70;82.40;;;;;;5003444;28;20561;-85
2022/06/11 10:14:30;;;;;;;3.27;2.97;;;26.00;79.50;;;;;;5003892;28;20457;-85
2022/06/11 10:17:03;;;;;;;2.70;2.50;;;26.10;78.10;;;;;;5003589;28;20584;-84
2022/06/11 10:19:36;;;;;;;3.27;3.00;;;26.00;76.70;;;;;;5003329;28;20465;-86
2022/06/11 10:22:13;;;;;;;3.30;3.00;;;26.20;78.00;;;;;;5002831;28;20943;-88
2022/06/11 10:24:58;;;;;;;4.30;4.00;;;26.40;75.70;;;;;;5004061;28;20954;-84
2022/06/11 10:27:26;;;;;;;2.80;2.60;;;26.60;76.90;;;;;;5003370;28;20484;-85
2022/06/11 10:30:01;;;;;;;3.30;3.10;;;26.80;75.30;;;;;;5003293;28;20454;-84
2022/06/11 10:32:36;;;;;;;2.90;2.70;;;27.10;76.70;;;;;;5003048;28;20543;-84
2022/06/11 10:35:13;;;;;;;3.30;3.10;;;27.50;77.30;;;;;;5002409;28;20876;-84
2022/06/11 10:37:46;;;;;;;3.10;2.80;;;27.70;69.90;;;;;;4999522;28;20467;-86
2022/06/11 10:40:22;;;;;;;3.43;3.17;;;27.70;69.90;;;;;;5003190;28;20490;-85
2022/06/11 10:42:56;;;;;;;3.50;3.20;;;27.70;70.80;;;;;;5002296;28;20523;-86
2022/06/11 10:45:23;;;;;;;2.90;2.60;;;27.40;67.70;;;;;;5004472;28;20809;-85
2022/06/11 10:47:53;;;;;;;3.03;2.83;;;27.70;66.90;;;;;;5023197;28;20845;-85
2022/06/11 10:50:23;;;;;;;4.43;3.50;;;27.60;67.30;;;;;;5022537;28;20447;-85
2022/06/11 10:52:56;;;;;;;2.80;2.70;;;27.30;69.30;;;;;;5001662;28;20489;-84
2022/06/11 10:55:31;;;;;;;5.10;3.00;;;27.10;68.90;;;;;;4999981;28;20453;-81
2022/06/11 10:58:02;;;;;;;3.50;3.20;;;27.20;68.80;;;;;;4999753;28;20471;-81
2022/06/11 11:00:36;;;;;;;3.23;3.03;;;27.40;71.60;;;;;;4999636;28;20469;-81
2022/06/11 11:03:12;;;;;;;4.60;3.20;;;27.40;71.10;;;;;;4998672;28;20817;-81
2022/06/11 11:05:49;;;;;;;4.50;3.00;;;27.50;73.10;;;;;;4997538;28;20452;-80
2022/06/11 11:08:18;;;;;;;3.53;3.27;;;27.60;72.60;;;;;;5018517;28;20527;-83
2022/06/11 11:10:48;;;;;;;3.53;3.30;;;28.00;71.00;;;;;;5017545;28;20541;-83
2022/06/11 11:13:23;;;;;;;6.50;4.03;;;28.50;71.10;;;;;;5000940;28;20875;-81
2022/06/11 11:15:57;;;;;;;3.27;2.73;;;28.70;66.40;;;;;;5002349;28;20461;-81
2022/06/11 11:18:27;;;;;;;3.10;2.97;;;29.10;69.20;;;;;;5022113;28;20520;-81
2022/06/11 11:20:57;;;;;;;3.57;3.27;;;29.40;66.20;;;;;;5002708;28;20452;-85
2022/06/11 11:34:04;;;;;;;4.03;3.63;;;30.60;66.10;;;;;;4939429;29;20463;-85
2022/06/11 11:36:32;;;;;;;3.07;2.83;;;31.40;62.30;;;;;;4956240;29;20461;-85
2022/06/11 11:39:23;;;;;;;2.93;2.73;;;31.90;60.40;;;;;;4996554;28;20522;-85
2022/06/11 11:42:02;;;;;;;3.30;2.87;;;32.40;57.30;;;;;;5015357;28;20464;-86
2022/06/11 11:44:35;;;;;;;3.37;3.27;;;32.90;57.90;;;;;;5034512;28;20451;-85
2022/06/11 11:47:04;;;;;;;3.87;3.43;;;33.10;54.20;;;;;;5035554;28;20475;-85
2022/06/11 11:49:34;;;;;;;3.10;2.90;;;33.10;52.80;;;;;;5033553;28;20474;-85
2022/06/11 11:52:08;;;;;;;3.30;3.00;;;33.10;52.00;;;;;;5029964;28;20866;-85
2022/06/11 11:54:35;;;;;;;3.53;2.80;;;33.10;52.00;;;;;;5009940;28;20958;-85
2022/06/11 11:57:05;;;;;;;3.00;2.80;;;33.20;52.90;;;;;;5007744;28;20526;-85
2022/06/11 11:59:41;;;;;;;3.00;2.80;;;33.60;51.70;;;;;;5008762;28;20463;-85
2022/06/11 12:02:27;;;;;;;3.10;2.47;;;34.10;51.90;;;;;;5013126;28;20469;-85
2022/06/11 12:05:20;;;;;;;3.53;3.23;;;34.20;51.20;;;;;;5008551;28;20567;-85
2022/06/11 12:07:49;;;;;;;3.43;2.80;;;34.60;49.30;;;;;;5008111;28;20484;-84
2022/06/11 12:10:30;;;;;;;2.70;2.50;;;34.00;47.30;;;;;;5024212;28;20467;-85
2022/06/11 12:12:58;;;;;;;3.03;2.83;;;33.30;48.00;;;;;;5027624;28;20995;-84
2022/06/11 12:15:28;;;;;;;3.90;2.87;;;32.70;50.70;;;;;;5027809;28;20473;-84
2022/06/11 12:17:59;;;;;;;3.33;3.13;;;32.70;50.60;;;;;;5008001;28;20492;-83
2022/06/11 12:20:35;;;;;;;2.90;2.70;;;33.10;51.30;;;;;;5007017;28;20483;-84
2022/06/11 12:23:10;;;;;;;3.80;2.90;;;32.90;49.50;;;;;;5006663;28;20518;-84
2022/06/11 12:25:44;;;;;;;4.43;3.20;;;33.60;51.80;;;;;;5008526;28;20456;-83
2022/06/11 12:28:15;;;;;;;2.67;2.57;;;34.30;50.30;;;;;;5016437;28;20467;-83
2022/06/11 12:30:43;;;;;;;2.73;2.53;;;35.20;48.10;;;;;;5012747;28;20437;-83
2022/06/11 12:33:12;;;;;;;2.27;2.17;;;35.70;45.00;;;;;;5011677;28;20446;-84
2022/06/11 12:35:49;;;;;;;3.13;2.60;;;36.00;44.90;;;;;;5012166;28;20458;-83
2022/06/11 12:38:26;;;;;;;3.23;2.90;;;35.90;42.60;;;;;;5013950;28;20510;-85
2022/06/11 12:41:00;;;;;;;2.90;2.70;;;35.80;42.00;;;;;;5014818;28;20442;-84
2022/06/11 12:43:41;;;;;;;3.53;2.53;;;36.00;43.60;;;;;;5013171;28;20486;-82
2022/06/11 12:46:17;;;;;;;2.43;2.23;;;36.50;42.20;;;;;;5010773;28;20454;-81
2022/06/11 12:48:50;;;;;;;2.93;2.73;;;36.90;41.90;;;;;;5004262;28;20454;-82
2022/06/11 12:51:26;;;;;;;3.27;2.57;;;37.30;40.00;;;;;;5011903;28;20454;-81
2022/06/11 12:53:57;;;;;;;3.10;2.57;;;37.60;39.40;;;;;;5026055;28;20454;-81
2022/06/11 12:56:51;;;;;;;2.13;2.03;;;37.80;42.20;;;;;;5021439;28;20464;-84
2022/06/11 12:59:31;;;;;;;2.93;2.70;;;37.30;39.80;;;;;;5010508;28;20450;-82
2022/06/11 13:02:15;;;;;;;2.47;2.27;;;36.40;39.30;;;;;;5028559;28;20454;-82
2022/06/11 13:04:59;;;;;;;4.77;3.30;;;35.90;39.40;;;;;;5011648;28;20444;-82
2022/06/11 13:07:37;;;;;;;9.80;9.00;;;35.90;38.60;;;;;;5020842;28;20558;-81
2022/06/11 13:10:25;;;;;;;3.30;3.10;;;35.60;39.30;;;;;;5010614;28;20478;-81
2022/06/11 13:13:10;;;;;;;2.93;2.73;;;35.00;41.20;;;;;;5027419;28;20446;-81
2022/06/11 13:15:44;;;;;;;8.07;7.30;;;35.60;39.90;;;;;;5029333;28;20438;-81
2022/06/11 13:18:37;;;;;;;3.10;2.90;;;36.30;40.40;;;;;;5009693;28;20475;-81
2022/06/11 13:21:12;;;;;;;2.47;2.30;;;36.30;40.70;;;;;;5011606;28;20446;-79